sensor_id;sensor_type;location;lat;lon;timestamp;temperature;humidity
81383;DHT22;70834;37.534;-122.308;2024-02-26T00:00:38;19.70;59.20
81383;DHT22;70834;37.534;-122.308;2024-02-26T00:03:00;19.60;59.00
81383;DHT22;70834;37.534;-122.308;2024-02-26T00:05:22;19.50;59.50
81383;DHT22;70834;37.534;-122.308;2024-02-26T00:07:43;19.50;59.50
81383;DHT22;70834;37.534;-122.308;2024-02-26T00:10:05;19.50;59.50
81383;DHT22;70834;37.534;-122.308;2024-02-26T00:12:26;19.40;59.40
81383;DHT22;70834;37.534;-122.308;2024-02-26T00:14:48;19.30;59.40
81383;DHT22;70834;37.534;-122.308;2024-02-26T00:17:10;19.30;59.30
81383;DHT22;70834;37.534;-122.308;2024-02-26T00:19:31;19.30;59.50
81383;DHT22;70834;37.534;-122.308;2024-02-26T00:21:53;19.20;59.20
81383;DHT22;70834;37.534;-122.308;2024-02-26T00:24:16;19.10;59.20
81383;DHT22;70834;37.534;-122.308;2024-02-26T00:26:37;19.10;58.80
81383;DHT22;70834;37.534;-122.308;2024-02-26T00:28:59;19.00;58.00
81383;DHT22;70834;37.534;-122.308;2024-02-26T00:31:20;19.00;57.40
81383;DHT22;70834;37.534;-122.308;2024-02-26T00:33:41;18.90;57.80
81383;DHT22;70834;37.534;-122.308;2024-02-26T00:36:04;18.90;57.10
81383;DHT22;70834;37.534;-122.308;2024-02-26T00:38:26;18.80;57.20
81383;DHT22;70834;37.534;-122.308;2024-02-26T00:40:47;18.70;57.70
81383;DHT22;70834;37.534;-122.308;2024-02-26T00:43:09;18.70;57.80
81383;DHT22;70834;37.534;-122.308;2024-02-26T00:45:30;18.60;57.80
81383;DHT22;70834;37.534;-122.308;2024-02-26T00:48:13;18.50;58.50
81383;DHT22;70834;37.534;-122.308;2024-02-26T00:50:34;18.40;58.60
81383;DHT22;70834;37.534;-122.308;2024-02-26T00:52:56;18.40;59.10
81383;DHT22;70834;37.534;-122.308;2024-02-26T00:55:17;18.30;59.50
81383;DHT22;70834;37.534;-122.308;2024-02-26T00:57:39;18.20;60.00
81383;DHT22;70834;37.534;-122.308;2024-02-26T01:00:01;18.10;60.70
81383;DHT22;70834;37.534;-122.308;2024-02-26T01:02:23;18.00;61.00
81383;DHT22;70834;37.534;-122.308;2024-02-26T01:04:44;17.90;61.40
81383;DHT22;70834;37.534;-122.308;2024-02-26T01:07:06;17.80;61.70
81383;DHT22;70834;37.534;-122.308;2024-02-26T01:09:27;17.80;61.80
81383;DHT22;70834;37.534;-122.308;2024-02-26T01:11:48;17.70;61.60
81383;DHT22;70834;37.534;-122.308;2024-02-26T01:14:10;17.60;62.00
81383;DHT22;70834;37.534;-122.308;2024-02-26T01:16:32;17.60;62.30
81383;DHT22;70834;37.534;-122.308;2024-02-26T01:18:54;17.50;62.50
81383;DHT22;70834;37.534;-122.308;2024-02-26T01:21:15;17.40;62.90
81383;DHT22;70834;37.534;-122.308;2024-02-26T01:23:36;17.30;63.30
81383;DHT22;70834;37.534;-122.308;2024-02-26T01:25:58;17.20;63.50
81383;DHT22;70834;37.534;-122.308;2024-02-26T01:28:19;17.20;63.70
81383;DHT22;70834;37.534;-122.308;2024-02-26T01:30:41;17.10;63.80
81383;DHT22;70834;37.534;-122.308;2024-02-26T01:33:02;17.00;64.20
81383;DHT22;70834;37.534;-122.308;2024-02-26T01:35:24;17.00;64.20
81383;DHT22;70834;37.534;-122.308;2024-02-26T01:37:45;16.90;64.30
81383;DHT22;70834;37.534;-122.308;2024-02-26T01:40:07;16.80;64.50
81383;DHT22;70834;37.534;-122.308;2024-02-26T01:42:30;16.70;64.50
81383;DHT22;70834;37.534;-122.308;2024-02-26T01:44:53;16.60;64.70
81383;DHT22;70834;37.534;-122.308;2024-02-26T01:47:14;16.60;65.10
81383;DHT22;70834;37.534;-122.308;2024-02-26T01:49:36;16.50;65.20
81383;DHT22;70834;37.534;-122.308;2024-02-26T01:51:59;16.40;65.20
81383;DHT22;70834;37.534;-122.308;2024-02-26T01:54:21;16.40;65.50
81383;DHT22;70834;37.534;-122.308;2024-02-26T01:56:42;16.30;65.90
81383;DHT22;70834;37.534;-122.308;2024-02-26T01:59:05;16.20;66.20
81383;DHT22;70834;37.534;-122.308;2024-02-26T02:01:30;16.20;66.60
81383;DHT22;70834;37.534;-122.308;2024-02-26T02:03:53;16.10;66.60
81383;DHT22;70834;37.534;-122.308;2024-02-26T02:06:15;16.00;66.80
81383;DHT22;70834;37.534;-122.308;2024-02-26T02:08:38;16.00;67.00
81383;DHT22;70834;37.534;-122.308;2024-02-26T02:11:00;15.90;67.10
81383;DHT22;70834;37.534;-122.308;2024-02-26T02:13:21;15.90;67.30
81383;DHT22;70834;37.534;-122.308;2024-02-26T02:15:43;15.80;67.00
81383;DHT22;70834;37.534;-122.308;2024-02-26T02:18:04;15.80;67.10
81383;DHT22;70834;37.534;-122.308;2024-02-26T02:20:34;15.80;67.40
81383;DHT22;70834;37.534;-122.308;2024-02-26T02:22:58;15.70;67.50
81383;DHT22;70834;37.534;-122.308;2024-02-26T02:25:20;15.70;67.90
81383;DHT22;70834;37.534;-122.308;2024-02-26T02:27:42;15.60;68.10
81383;DHT22;70834;37.534;-122.308;2024-02-26T02:30:04;15.60;68.30
81383;DHT22;70834;37.534;-122.308;2024-02-26T02:32:26;15.50;68.70
81383;DHT22;70834;37.534;-122.308;2024-02-26T02:34:49;15.40;68.80
81383;DHT22;70834;37.534;-122.308;2024-02-26T02:37:10;15.40;69.00
81383;DHT22;70834;37.534;-122.308;2024-02-26T02:39:31;15.40;69.00
81383;DHT22;70834;37.534;-122.308;2024-02-26T02:41:53;15.30;69.10
81383;DHT22;70834;37.534;-122.308;2024-02-26T02:44:14;15.30;69.40
81383;DHT22;70834;37.534;-122.308;2024-02-26T02:46:36;15.20;69.80
81383;DHT22;70834;37.534;-122.308;2024-02-26T02:48:57;15.20;70.00
81383;DHT22;70834;37.534;-122.308;2024-02-26T02:51:19;15.20;70.20
81383;DHT22;70834;37.534;-122.308;2024-02-26T02:53:40;15.20;70.20
81383;DHT22;70834;37.534;-122.308;2024-02-26T02:56:02;15.20;70.50
81383;DHT22;70834;37.534;-122.308;2024-02-26T02:58:23;15.10;70.50
81383;DHT22;70834;37.534;-122.308;2024-02-26T03:00:44;15.10;70.70
81383;DHT22;70834;37.534;-122.308;2024-02-26T03:03:06;15.10;70.90
81383;DHT22;70834;37.534;-122.308;2024-02-26T03:05:27;15.00;70.80
81383;DHT22;70834;37.534;-122.308;2024-02-26T03:07:49;15.10;70.90
81383;DHT22;70834;37.534;-122.308;2024-02-26T03:10:10;15.00;70.90
81383;DHT22;70834;37.534;-122.308;2024-02-26T03:12:33;15.00;70.80
81383;DHT22;70834;37.534;-122.308;2024-02-26T03:14:55;15.00;71.10
81383;DHT22;70834;37.534;-122.308;2024-02-26T03:17:16;14.90;71.00
81383;DHT22;70834;37.534;-122.308;2024-02-26T03:19:38;14.90;71.10
81383;DHT22;70834;37.534;-122.308;2024-02-26T03:21:59;14.90;71.10
81383;DHT22;70834;37.534;-122.308;2024-02-26T03:24:20;14.90;71.20
81383;DHT22;70834;37.534;-122.308;2024-02-26T03:26:42;14.90;71.20
81383;DHT22;70834;37.534;-122.308;2024-02-26T03:29:04;14.80;71.20
81383;DHT22;70834;37.534;-122.308;2024-02-26T03:31:26;14.80;71.40
81383;DHT22;70834;37.534;-122.308;2024-02-26T03:33:47;14.80;71.50
81383;DHT22;70834;37.534;-122.308;2024-02-26T03:36:08;14.80;71.60
81383;DHT22;70834;37.534;-122.308;2024-02-26T03:38:30;14.70;71.70
81383;DHT22;70834;37.534;-122.308;2024-02-26T03:40:51;14.70;71.70
81383;DHT22;70834;37.534;-122.308;2024-02-26T03:43:13;14.70;71.80
81383;DHT22;70834;37.534;-122.308;2024-02-26T03:45:34;14.70;71.90
81383;DHT22;70834;37.534;-122.308;2024-02-26T03:47:56;14.70;72.00
81383;DHT22;70834;37.534;-122.308;2024-02-26T03:50:17;14.60;71.90
81383;DHT22;70834;37.534;-122.308;2024-02-26T03:52:39;14.60;72.00
81383;DHT22;70834;37.534;-122.308;2024-02-26T03:55:00;14.60;72.10
81383;DHT22;70834;37.534;-122.308;2024-02-26T03:57:21;14.50;72.20
81383;DHT22;70834;37.534;-122.308;2024-02-26T03:59:43;14.50;72.50
81383;DHT22;70834;37.534;-122.308;2024-02-26T04:02:04;14.50;72.60
81383;DHT22;70834;37.534;-122.308;2024-02-26T04:04:26;14.50;72.30
81383;DHT22;70834;37.534;-122.308;2024-02-26T04:06:47;14.40;72.50
81383;DHT22;70834;37.534;-122.308;2024-02-26T04:09:09;14.40;72.80
81383;DHT22;70834;37.534;-122.308;2024-02-26T04:11:31;14.40;73.20
81383;DHT22;70834;37.534;-122.308;2024-02-26T04:13:52;14.30;73.40
81383;DHT22;70834;37.534;-122.308;2024-02-26T04:16:14;14.30;73.70
81383;DHT22;70834;37.534;-122.308;2024-02-26T04:18:36;14.30;73.80
81383;DHT22;70834;37.534;-122.308;2024-02-26T04:20:57;14.30;73.70
81383;DHT22;70834;37.534;-122.308;2024-02-26T04:23:19;14.30;73.70
81383;DHT22;70834;37.534;-122.308;2024-02-26T04:25:40;14.30;73.90
81383;DHT22;70834;37.534;-122.308;2024-02-26T04:28:02;14.20;73.80
81383;DHT22;70834;37.534;-122.308;2024-02-26T04:30:23;14.20;73.60
81383;DHT22;70834;37.534;-122.308;2024-02-26T04:32:45;14.20;73.40
81383;DHT22;70834;37.534;-122.308;2024-02-26T04:35:06;14.10;73.30
81383;DHT22;70834;37.534;-122.308;2024-02-26T04:37:28;14.10;73.40
81383;DHT22;70834;37.534;-122.308;2024-02-26T04:39:52;14.10;73.30
81383;DHT22;70834;37.534;-122.308;2024-02-26T04:42:13;14.10;73.40
81383;DHT22;70834;37.534;-122.308;2024-02-26T04:44:35;14.00;73.40
81383;DHT22;70834;37.534;-122.308;2024-02-26T04:46:56;14.00;73.40
81383;DHT22;70834;37.534;-122.308;2024-02-26T04:49:18;14.00;73.40
81383;DHT22;70834;37.534;-122.308;2024-02-26T04:51:39;13.90;73.40
81383;DHT22;70834;37.534;-122.308;2024-02-26T04:54:00;13.90;73.40
81383;DHT22;70834;37.534;-122.308;2024-02-26T04:56:22;13.90;73.50
81383;DHT22;70834;37.534;-122.308;2024-02-26T04:58:43;13.80;73.40
81383;DHT22;70834;37.534;-122.308;2024-02-26T05:01:05;13.80;73.30
81383;DHT22;70834;37.534;-122.308;2024-02-26T05:03:26;13.80;73.20
81383;DHT22;70834;37.534;-122.308;2024-02-26T05:05:47;13.70;73.10
81383;DHT22;70834;37.534;-122.308;2024-02-26T05:08:09;13.70;73.10
81383;DHT22;70834;37.534;-122.308;2024-02-26T05:10:30;13.70;73.10
81383;DHT22;70834;37.534;-122.308;2024-02-26T05:12:52;13.60;73.00
81383;DHT22;70834;37.534;-122.308;2024-02-26T05:15:13;13.50;72.90
81383;DHT22;70834;37.534;-122.308;2024-02-26T05:17:38;13.50;73.10
81383;DHT22;70834;37.534;-122.308;2024-02-26T05:20:00;13.50;73.20
81383;DHT22;70834;37.534;-122.308;2024-02-26T05:22:21;13.40;73.20
81383;DHT22;70834;37.534;-122.308;2024-02-26T05:24:43;13.40;73.10
81383;DHT22;70834;37.534;-122.308;2024-02-26T05:27:04;13.30;73.10
81383;DHT22;70834;37.534;-122.308;2024-02-26T05:29:25;13.30;73.20
81383;DHT22;70834;37.534;-122.308;2024-02-26T05:31:47;13.30;73.10
81383;DHT22;70834;37.534;-122.308;2024-02-26T05:34:08;13.20;73.60
81383;DHT22;70834;37.534;-122.308;2024-02-26T05:36:30;13.20;73.60
81383;DHT22;70834;37.534;-122.308;2024-02-26T05:38:54;13.10;74.70
81383;DHT22;70834;37.534;-122.308;2024-02-26T05:41:16;13.10;75.10
81383;DHT22;70834;37.534;-122.308;2024-02-26T05:43:41;13.10;75.20
81383;DHT22;70834;37.534;-122.308;2024-02-26T05:46:02;13.00;75.20
81383;DHT22;70834;37.534;-122.308;2024-02-26T05:48:23;13.00;75.00
81383;DHT22;70834;37.534;-122.308;2024-02-26T05:50:46;13.00;74.80
81383;DHT22;70834;37.534;-122.308;2024-02-26T05:53:08;13.00;74.70
81383;DHT22;70834;37.534;-122.308;2024-02-26T05:55:29;13.00;74.60
81383;DHT22;70834;37.534;-122.308;2024-02-26T05:57:50;12.90;74.60
81383;DHT22;70834;37.534;-122.308;2024-02-26T06:00:12;12.90;74.50
81383;DHT22;70834;37.534;-122.308;2024-02-26T06:02:34;12.90;74.50
81383;DHT22;70834;37.534;-122.308;2024-02-26T06:04:55;12.80;74.80
81383;DHT22;70834;37.534;-122.308;2024-02-26T06:07:16;12.80;75.10
81383;DHT22;70834;37.534;-122.308;2024-02-26T06:09:38;12.80;75.40
81383;DHT22;70834;37.534;-122.308;2024-02-26T06:12:00;12.90;75.60
81383;DHT22;70834;37.534;-122.308;2024-02-26T06:14:21;12.80;75.80
81383;DHT22;70834;37.534;-122.308;2024-02-26T06:16:47;12.90;75.90
81383;DHT22;70834;37.534;-122.308;2024-02-26T06:19:09;12.90;76.10
81383;DHT22;70834;37.534;-122.308;2024-02-26T06:21:30;12.90;76.40
81383;DHT22;70834;37.534;-122.308;2024-02-26T06:23:51;12.90;76.50
81383;DHT22;70834;37.534;-122.308;2024-02-26T06:26:13;13.00;76.60
81383;DHT22;70834;37.534;-122.308;2024-02-26T06:28:34;13.00;76.60
81383;DHT22;70834;37.534;-122.308;2024-02-26T06:30:56;13.10;76.50
81383;DHT22;70834;37.534;-122.308;2024-02-26T06:33:18;13.10;76.40
81383;DHT22;70834;37.534;-122.308;2024-02-26T06:35:39;13.10;76.30
81383;DHT22;70834;37.534;-122.308;2024-02-26T06:38:00;13.10;76.30
81383;DHT22;70834;37.534;-122.308;2024-02-26T06:40:22;13.10;76.10
81383;DHT22;70834;37.534;-122.308;2024-02-26T06:42:43;13.10;75.90
81383;DHT22;70834;37.534;-122.308;2024-02-26T06:45:05;13.20;75.90
81383;DHT22;70834;37.534;-122.308;2024-02-26T06:47:28;13.20;75.70
81383;DHT22;70834;37.534;-122.308;2024-02-26T06:49:49;13.10;75.60
81383;DHT22;70834;37.534;-122.308;2024-02-26T06:52:11;13.20;75.60
81383;DHT22;70834;37.534;-122.308;2024-02-26T06:54:32;13.20;75.50
81383;DHT22;70834;37.534;-122.308;2024-02-26T06:56:53;13.20;75.60
81383;DHT22;70834;37.534;-122.308;2024-02-26T06:59:15;13.20;75.40
81383;DHT22;70834;37.534;-122.308;2024-02-26T07:01:36;13.20;75.40
81383;DHT22;70834;37.534;-122.308;2024-02-26T07:03:57;13.20;75.30
81383;DHT22;70834;37.534;-122.308;2024-02-26T07:06:19;13.20;75.30
81383;DHT22;70834;37.534;-122.308;2024-02-26T07:08:40;13.20;75.20
81383;DHT22;70834;37.534;-122.308;2024-02-26T07:11:01;13.30;75.10
81383;DHT22;70834;37.534;-122.308;2024-02-26T07:13:23;13.30;75.00
81383;DHT22;70834;37.534;-122.308;2024-02-26T07:15:44;13.30;75.00
81383;DHT22;70834;37.534;-122.308;2024-02-26T07:18:06;13.30;74.90
81383;DHT22;70834;37.534;-122.308;2024-02-26T07:20:27;13.30;74.80
81383;DHT22;70834;37.534;-122.308;2024-02-26T07:22:48;13.30;74.70
81383;DHT22;70834;37.534;-122.308;2024-02-26T07:25:10;13.30;75.10
81383;DHT22;70834;37.534;-122.308;2024-02-26T07:27:35;13.20;74.50
81383;DHT22;70834;37.534;-122.308;2024-02-26T07:29:56;13.20;74.50
81383;DHT22;70834;37.534;-122.308;2024-02-26T07:32:18;13.20;74.60
81383;DHT22;70834;37.534;-122.308;2024-02-26T07:34:39;13.20;74.70
81383;DHT22;70834;37.534;-122.308;2024-02-26T07:37:02;13.20;74.70
81383;DHT22;70834;37.534;-122.308;2024-02-26T07:39:24;13.20;74.90
81383;DHT22;70834;37.534;-122.308;2024-02-26T07:41:45;13.20;75.10
81383;DHT22;70834;37.534;-122.308;2024-02-26T07:44:10;13.20;75.10
81383;DHT22;70834;37.534;-122.308;2024-02-26T07:46:31;13.20;75.20
81383;DHT22;70834;37.534;-122.308;2024-02-26T07:48:53;13.20;75.30
81383;DHT22;70834;37.534;-122.308;2024-02-26T07:51:14;13.30;75.40
81383;DHT22;70834;37.534;-122.308;2024-02-26T07:53:35;13.30;75.50
81383;DHT22;70834;37.534;-122.308;2024-02-26T07:55:57;13.30;75.50
81383;DHT22;70834;37.534;-122.308;2024-02-26T07:58:18;13.30;75.50
81383;DHT22;70834;37.534;-122.308;2024-02-26T08:00:40;13.30;75.40
81383;DHT22;70834;37.534;-122.308;2024-02-26T08:03:01;13.30;75.10
81383;DHT22;70834;37.534;-122.308;2024-02-26T08:05:23;13.30;75.00
81383;DHT22;70834;37.534;-122.308;2024-02-26T08:07:44;13.40;74.90
81383;DHT22;70834;37.534;-122.308;2024-02-26T08:10:06;13.30;74.70
81383;DHT22;70834;37.534;-122.308;2024-02-26T08:12:28;13.40;74.50
81383;DHT22;70834;37.534;-122.308;2024-02-26T08:14:49;13.40;74.60
81383;DHT22;70834;37.534;-122.308;2024-02-26T08:17:11;13.40;74.60
81383;DHT22;70834;37.534;-122.308;2024-02-26T08:19:32;13.40;74.50
81383;DHT22;70834;37.534;-122.308;2024-02-26T08:21:56;13.30;74.30
81383;DHT22;70834;37.534;-122.308;2024-02-26T08:24:18;13.30;74.20
81383;DHT22;70834;37.534;-122.308;2024-02-26T08:26:39;13.20;74.00
81383;DHT22;70834;37.534;-122.308;2024-02-26T08:29:00;13.20;74.00
81383;DHT22;70834;37.534;-122.308;2024-02-26T08:31:22;13.20;73.90
81383;DHT22;70834;37.534;-122.308;2024-02-26T08:33:44;13.20;73.80
81383;DHT22;70834;37.534;-122.308;2024-02-26T08:36:06;13.10;74.30
81383;DHT22;70834;37.534;-122.308;2024-02-26T08:38:27;13.10;74.30
81383;DHT22;70834;37.534;-122.308;2024-02-26T08:40:49;13.10;73.50
81383;DHT22;70834;37.534;-122.308;2024-02-26T08:43:10;13.00;73.50
81383;DHT22;70834;37.534;-122.308;2024-02-26T08:45:32;13.00;73.50
81383;DHT22;70834;37.534;-122.308;2024-02-26T08:47:53;13.00;73.40
81383;DHT22;70834;37.534;-122.308;2024-02-26T08:50:14;12.90;73.50
81383;DHT22;70834;37.534;-122.308;2024-02-26T08:52:56;12.90;73.60
81383;DHT22;70834;37.534;-122.308;2024-02-26T08:55:17;12.80;73.90
81383;DHT22;70834;37.534;-122.308;2024-02-26T08:57:39;12.70;74.10
81383;DHT22;70834;37.534;-122.308;2024-02-26T09:00:01;12.70;74.00
81383;DHT22;70834;37.534;-122.308;2024-02-26T09:02:22;12.60;74.00
81383;DHT22;70834;37.534;-122.308;2024-02-26T09:04:43;12.60;74.10
81383;DHT22;70834;37.534;-122.308;2024-02-26T09:07:05;12.50;73.90
81383;DHT22;70834;37.534;-122.308;2024-02-26T09:09:27;12.50;74.10
81383;DHT22;70834;37.534;-122.308;2024-02-26T09:11:49;12.50;74.60
81383;DHT22;70834;37.534;-122.308;2024-02-26T09:14:12;12.40;74.80
81383;DHT22;70834;37.534;-122.308;2024-02-26T09:16:54;12.40;75.20
81383;DHT22;70834;37.534;-122.308;2024-02-26T09:19:15;12.40;75.60
81383;DHT22;70834;37.534;-122.308;2024-02-26T09:21:39;12.40;75.80
81383;DHT22;70834;37.534;-122.308;2024-02-26T09:24:03;12.40;76.10
81383;DHT22;70834;37.534;-122.308;2024-02-26T09:26:24;12.50;76.20
81383;DHT22;70834;37.534;-122.308;2024-02-26T09:28:46;12.50;76.20
81383;DHT22;70834;37.534;-122.308;2024-02-26T09:31:07;12.60;76.30
81383;DHT22;70834;37.534;-122.308;2024-02-26T09:33:28;12.60;76.20
81383;DHT22;70834;37.534;-122.308;2024-02-26T09:35:50;12.60;76.10
81383;DHT22;70834;37.534;-122.308;2024-02-26T09:38:11;12.70;76.00
81383;DHT22;70834;37.534;-122.308;2024-02-26T09:40:33;12.70;75.90
81383;DHT22;70834;37.534;-122.308;2024-02-26T09:42:59;12.70;75.80
81383;DHT22;70834;37.534;-122.308;2024-02-26T09:45:22;12.80;75.80
81383;DHT22;70834;37.534;-122.308;2024-02-26T09:47:48;12.80;75.70
81383;DHT22;70834;37.534;-122.308;2024-02-26T09:50:12;12.80;75.50
81383;DHT22;70834;37.534;-122.308;2024-02-26T09:52:35;12.80;75.30
81383;DHT22;70834;37.534;-122.308;2024-02-26T09:54:58;12.80;75.20
81383;DHT22;70834;37.534;-122.308;2024-02-26T09:57:20;12.80;75.20
81383;DHT22;70834;37.534;-122.308;2024-02-26T09:59:46;12.80;75.20
81383;DHT22;70834;37.534;-122.308;2024-02-26T10:02:12;12.80;75.20
81383;DHT22;70834;37.534;-122.308;2024-02-26T10:04:34;12.80;75.00
81383;DHT22;70834;37.534;-122.308;2024-02-26T10:06:55;12.90;75.10
81383;DHT22;70834;37.534;-122.308;2024-02-26T10:09:17;12.90;75.20
81383;DHT22;70834;37.534;-122.308;2024-02-26T10:11:40;12.90;75.40
81383;DHT22;70834;37.534;-122.308;2024-02-26T10:14:04;12.90;75.40
81383;DHT22;70834;37.534;-122.308;2024-02-26T10:16:25;12.90;75.40
81383;DHT22;70834;37.534;-122.308;2024-02-26T10:18:48;12.90;75.50
81383;DHT22;70834;37.534;-122.308;2024-02-26T10:21:09;13.00;75.40
81383;DHT22;70834;37.534;-122.308;2024-02-26T10:23:31;13.00;75.40
81383;DHT22;70834;37.534;-122.308;2024-02-26T10:25:54;13.00;75.40
81383;DHT22;70834;37.534;-122.308;2024-02-26T10:28:16;13.00;75.30
81383;DHT22;70834;37.534;-122.308;2024-02-26T10:30:37;13.00;75.10
81383;DHT22;70834;37.534;-122.308;2024-02-26T10:32:59;13.00;75.00
81383;DHT22;70834;37.534;-122.308;2024-02-26T10:35:20;13.10;75.00
81383;DHT22;70834;37.534;-122.308;2024-02-26T10:37:43;13.10;75.00
81383;DHT22;70834;37.534;-122.308;2024-02-26T10:40:04;13.10;75.00
81383;DHT22;70834;37.534;-122.308;2024-02-26T10:42:26;13.10;75.00
81383;DHT22;70834;37.534;-122.308;2024-02-26T10:44:48;13.10;75.00
81383;DHT22;70834;37.534;-122.308;2024-02-26T10:47:09;13.10;75.00
81383;DHT22;70834;37.534;-122.308;2024-02-26T10:49:31;13.20;75.00
81383;DHT22;70834;37.534;-122.308;2024-02-26T10:51:56;13.20;74.80
81383;DHT22;70834;37.534;-122.308;2024-02-26T10:54:20;13.20;74.70
81383;DHT22;70834;37.534;-122.308;2024-02-26T10:56:42;13.20;74.60
81383;DHT22;70834;37.534;-122.308;2024-02-26T10:59:05;13.20;74.30
81383;DHT22;70834;37.534;-122.308;2024-02-26T11:01:29;13.20;74.20
81383;DHT22;70834;37.534;-122.308;2024-02-26T11:03:52;13.20;74.10
81383;DHT22;70834;37.534;-122.308;2024-02-26T11:06:14;13.20;74.20
81383;DHT22;70834;37.534;-122.308;2024-02-26T11:08:36;13.20;74.20
81383;DHT22;70834;37.534;-122.308;2024-02-26T11:10:57;13.20;74.10
81383;DHT22;70834;37.534;-122.308;2024-02-26T11:13:20;13.20;74.00
81383;DHT22;70834;37.534;-122.308;2024-02-26T11:15:43;13.20;74.10
81383;DHT22;70834;37.534;-122.308;2024-02-26T11:18:07;13.30;74.20
81383;DHT22;70834;37.534;-122.308;2024-02-26T11:20:29;13.30;74.30
81383;DHT22;70834;37.534;-122.308;2024-02-26T11:22:50;13.30;74.30
81383;DHT22;70834;37.534;-122.308;2024-02-26T11:25:12;13.30;74.30
81383;DHT22;70834;37.534;-122.308;2024-02-26T11:27:43;13.30;74.40
81383;DHT22;70834;37.534;-122.308;2024-02-26T11:30:09;13.30;74.30
81383;DHT22;70834;37.534;-122.308;2024-02-26T11:32:31;13.30;74.50
81383;DHT22;70834;37.534;-122.308;2024-02-26T11:34:54;13.30;74.40
81383;DHT22;70834;37.534;-122.308;2024-02-26T11:37:17;13.30;74.30
81383;DHT22;70834;37.534;-122.308;2024-02-26T11:39:40;13.30;74.30
81383;DHT22;70834;37.534;-122.308;2024-02-26T11:42:09;13.30;74.30
81383;DHT22;70834;37.534;-122.308;2024-02-26T11:44:31;13.30;74.40
81383;DHT22;70834;37.534;-122.308;2024-02-26T11:46:53;13.30;74.40
81383;DHT22;70834;37.534;-122.308;2024-02-26T11:51:55;13.30;74.60
81383;DHT22;70834;37.534;-122.308;2024-02-26T11:54:46;13.30;74.60
81383;DHT22;70834;37.534;-122.308;2024-02-26T11:57:26;13.30;74.60
81383;DHT22;70834;37.534;-122.308;2024-02-26T11:59:51;13.30;74.60
81383;DHT22;70834;37.534;-122.308;2024-02-26T12:02:51;13.30;74.60
81383;DHT22;70834;37.534;-122.308;2024-02-26T12:05:23;13.40;74.60
81383;DHT22;70834;37.534;-122.308;2024-02-26T12:07:50;13.40;74.50
81383;DHT22;70834;37.534;-122.308;2024-02-26T12:10:34;13.40;74.60
81383;DHT22;70834;37.534;-122.308;2024-02-26T12:13:21;13.40;74.80
81383;DHT22;70834;37.534;-122.308;2024-02-26T12:15:55;13.40;74.70
81383;DHT22;70834;37.534;-122.308;2024-02-26T12:18:18;13.50;74.70
81383;DHT22;70834;37.534;-122.308;2024-02-26T12:20:39;13.50;74.70
81383;DHT22;70834;37.534;-122.308;2024-02-26T12:23:02;13.50;74.80
81383;DHT22;70834;37.534;-122.308;2024-02-26T12:25:29;13.50;74.60
81383;DHT22;70834;37.534;-122.308;2024-02-26T12:27:51;13.60;74.50
81383;DHT22;70834;37.534;-122.308;2024-02-26T12:30:12;13.60;74.50
81383;DHT22;70834;37.534;-122.308;2024-02-26T12:32:35;13.60;74.40
81383;DHT22;70834;37.534;-122.308;2024-02-26T12:34:57;13.60;74.50
81383;DHT22;70834;37.534;-122.308;2024-02-26T12:37:19;13.60;74.40
81383;DHT22;70834;37.534;-122.308;2024-02-26T12:39:41;13.60;74.40
81383;DHT22;70834;37.534;-122.308;2024-02-26T12:42:02;13.70;74.50
81383;DHT22;70834;37.534;-122.308;2024-02-26T12:44:27;13.70;74.40
81383;DHT22;70834;37.534;-122.308;2024-02-26T12:46:48;13.70;74.40
81383;DHT22;70834;37.534;-122.308;2024-02-26T12:49:15;13.70;74.40
81383;DHT22;70834;37.534;-122.308;2024-02-26T12:51:38;13.70;74.40
81383;DHT22;70834;37.534;-122.308;2024-02-26T12:53:59;13.70;74.50
81383;DHT22;70834;37.534;-122.308;2024-02-26T12:56:22;13.80;74.50
81383;DHT22;70834;37.534;-122.308;2024-02-26T12:58:44;13.70;74.50
81383;DHT22;70834;37.534;-122.308;2024-02-26T13:01:08;13.80;74.60
81383;DHT22;70834;37.534;-122.308;2024-02-26T13:03:36;13.80;74.60
81383;DHT22;70834;37.534;-122.308;2024-02-26T13:05:57;13.80;74.50
81383;DHT22;70834;37.534;-122.308;2024-02-26T13:08:22;13.90;74.60
81383;DHT22;70834;37.534;-122.308;2024-02-26T13:10:45;13.90;74.60
81383;DHT22;70834;37.534;-122.308;2024-02-26T13:13:07;13.90;74.60
81383;DHT22;70834;37.534;-122.308;2024-02-26T13:15:29;13.90;74.60
81383;DHT22;70834;37.534;-122.308;2024-02-26T13:17:50;13.90;74.60
81383;DHT22;70834;37.534;-122.308;2024-02-26T13:20:26;14.00;74.70
81383;DHT22;70834;37.534;-122.308;2024-02-26T13:22:49;14.00;74.70
81383;DHT22;70834;37.534;-122.308;2024-02-26T13:25:10;14.00;74.80
81383;DHT22;70834;37.534;-122.308;2024-02-26T13:27:31;14.00;74.80
81383;DHT22;70834;37.534;-122.308;2024-02-26T13:30:09;14.00;74.80
81383;DHT22;70834;37.534;-122.308;2024-02-26T13:32:38;14.00;74.80
81383;DHT22;70834;37.534;-122.308;2024-02-26T13:35:11;14.00;74.80
81383;DHT22;70834;37.534;-122.308;2024-02-26T13:37:33;14.00;74.50
81383;DHT22;70834;37.534;-122.308;2024-02-26T13:39:54;14.00;74.30
81383;DHT22;70834;37.534;-122.308;2024-02-26T13:42:16;13.90;74.20
81383;DHT22;70834;37.534;-122.308;2024-02-26T13:44:37;13.90;73.90
81383;DHT22;70834;37.534;-122.308;2024-02-26T13:47:00;13.90;73.80
81383;DHT22;70834;37.534;-122.308;2024-02-26T13:49:21;13.80;74.00
81383;DHT22;70834;37.534;-122.308;2024-02-26T13:51:43;13.80;74.10
81383;DHT22;70834;37.534;-122.308;2024-02-26T13:54:04;13.70;74.10
81383;DHT22;70834;37.534;-122.308;2024-02-26T13:56:26;13.70;74.20
81383;DHT22;70834;37.534;-122.308;2024-02-26T13:58:47;13.70;74.30
81383;DHT22;70834;37.534;-122.308;2024-02-26T14:01:09;13.60;74.30
81383;DHT22;70834;37.534;-122.308;2024-02-26T14:03:30;13.50;74.30
81383;DHT22;70834;37.534;-122.308;2024-02-26T14:05:51;13.50;74.40
81383;DHT22;70834;37.534;-122.308;2024-02-26T14:08:13;13.40;74.40
81383;DHT22;70834;37.534;-122.308;2024-02-26T14:10:35;13.40;75.00
81383;DHT22;70834;37.534;-122.308;2024-02-26T14:12:57;13.30;75.00
81383;DHT22;70834;37.534;-122.308;2024-02-26T14:15:18;13.30;75.20
81383;DHT22;70834;37.534;-122.308;2024-02-26T14:17:40;13.30;75.40
81383;DHT22;70834;37.534;-122.308;2024-02-26T14:20:01;13.30;75.50
81383;DHT22;70834;37.534;-122.308;2024-02-26T14:22:24;13.20;75.70